createdAt,value
2018-10-09T00:02:13.691Z,83.10
2018-10-09T00:04:41.936Z,82.90
2018-10-09T00:07:10.145Z,83.10
2018-10-09T00:09:38.338Z,82.80
2018-10-09T00:12:06.602Z,82.30
2018-10-09T00:14:34.810Z,82.60
2018-10-09T00:17:02.996Z,83.50
2018-10-09T00:19:31.238Z,84.80
2018-10-09T00:21:59.454Z,84.90
2018-10-09T00:24:27.710Z,85.30
2018-10-09T00:26:55.959Z,86.40
2018-10-09T00:29:24.159Z,86.10
2018-10-09T00:31:52.400Z,85.40
2018-10-09T00:34:20.622Z,85.40
2018-10-09T00:36:48.877Z,86.40
2018-10-09T00:39:17.123Z,86.00
2018-10-09T00:41:45.373Z,87.00
2018-10-09T00:44:13.607Z,86.30
2018-10-09T00:46:41.893Z,86.30
2018-10-09T00:49:10.207Z,85.80
2018-10-09T00:51:38.458Z,85.90
2018-10-09T00:54:06.718Z,86.40
2018-10-09T00:56:34.945Z,86.50
2018-10-09T00:59:03.219Z,87.70
2018-10-09T01:01:31.479Z,88.60
2018-10-09T01:03:59.674Z,89.80
2018-10-09T01:06:27.909Z,90.00
2018-10-09T01:08:56.150Z,89.40
2018-10-09T01:11:24.325Z,88.80
2018-10-09T01:13:52.499Z,87.10
2018-10-09T01:16:20.894Z,86.70
2018-10-09T01:18:49.134Z,85.30
2018-10-09T01:21:17.359Z,84.50
2018-10-09T01:23:45.543Z,84.20
2018-10-09T01:26:13.750Z,85.60
2018-10-09T01:28:41.935Z,86.10
2018-10-09T01:31:10.182Z,85.50
2018-10-09T01:33:38.387Z,84.40
2018-10-09T01:36:06.777Z,85.20
2018-10-09T01:38:35.007Z,85.50
2018-10-09T01:41:03.227Z,85.10
2018-10-09T01:43:31.439Z,84.00
2018-10-09T01:45:59.635Z,83.90
2018-10-09T01:48:27.842Z,83.60
2018-10-09T01:50:56.061Z,83.20
2018-10-09T01:53:24.277Z,82.50
2018-10-09T01:55:52.510Z,83.20
2018-10-09T01:58:20.727Z,85.40
2018-10-09T02:00:48.968Z,86.40
2018-10-09T02:03:17.338Z,87.00
2018-10-09T02:05:45.613Z,87.00
2018-10-09T02:08:13.835Z,87.10
2018-10-09T02:10:42.075Z,85.80
2018-10-09T02:13:10.277Z,85.60
2018-10-09T02:15:38.516Z,84.30
2018-10-09T02:18:06.730Z,84.70
2018-10-09T02:20:34.930Z,86.60
2018-10-09T02:23:03.194Z,87.20
2018-10-09T02:25:31.475Z,87.20
2018-10-09T02:27:59.730Z,86.30
2018-10-09T02:30:27.962Z,86.50
2018-10-09T02:32:56.214Z,85.70
2018-10-09T02:35:24.439Z,85.30
2018-10-09T02:37:52.715Z,85.30
2018-10-09T02:40:20.961Z,86.30
2018-10-09T02:42:49.194Z,86.70
2018-10-09T02:45:17.391Z,85.90
2018-10-09T02:47:45.611Z,85.30
2018-10-09T02:50:13.902Z,84.50
2018-10-09T02:52:42.165Z,83.40
2018-10-09T02:55:10.359Z,82.20
2018-10-09T02:57:38.604Z,82.80
2018-10-09T03:00:06.966Z,83.20
2018-10-09T03:02:35.180Z,82.80
2018-10-09T03:05:03.380Z,82.40
2018-10-09T03:07:31.612Z,81.70
2018-10-09T03:09:59.815Z,81.70
2018-10-09T03:12:28.038Z,81.50
2018-10-09T03:14:56.523Z,81.50
2018-10-09T03:17:24.724Z,81.60
2018-10-09T03:19:53.002Z,80.80
2018-10-09T03:22:21.761Z,81.70
2018-10-09T03:24:49.969Z,81.80
2018-10-09T03:27:18.182Z,81.50
2018-10-09T03:29:46.398Z,80.80
2018-10-09T03:32:14.654Z,81.80
2018-10-09T03:34:42.901Z,82.10
2018-10-09T03:37:11.122Z,82.10
2018-10-09T03:39:39.375Z,82.60
2018-10-09T03:42:07.674Z,82.80
2018-10-09T03:44:35.897Z,83.10
2018-10-09T03:47:04.170Z,83.40
2018-10-09T03:49:32.399Z,83.40
2018-10-09T03:52:00.691Z,83.20
2018-10-09T03:54:28.951Z,82.60
2018-10-09T03:57:03.847Z,82.20
2018-10-09T03:59:32.154Z,82.20
2018-10-09T04:02:00.394Z,83.00
2018-10-09T04:04:28.698Z,84.50
2018-10-09T04:06:56.960Z,84.30
2018-10-09T04:09:25.320Z,84.00
2018-10-09T04:11:53.514Z,84.20
2018-10-09T04:14:21.791Z,83.60
2018-10-09T04:16:50.081Z,84.10
2018-10-09T04:19:18.360Z,83.70
2018-10-09T04:21:46.684Z,83.10
2018-10-09T04:24:14.923Z,82.30
2018-10-09T04:26:43.191Z,82.50
2018-10-09T04:29:11.467Z,82.00
2018-10-09T04:31:39.746Z,82.50
2018-10-09T04:34:08.677Z,82.60
2018-10-09T04:36:37.155Z,82.80
2018-10-09T04:39:07.347Z,83.30
2018-10-09T04:41:37.178Z,83.90
2018-10-09T04:44:05.542Z,83.20
2018-10-09T04:46:33.890Z,84.00
2018-10-09T04:49:02.674Z,83.30
2018-10-09T04:51:31.560Z,82.90
2018-10-09T04:53:59.911Z,82.20
2018-10-09T04:56:28.115Z,82.00
2018-10-09T04:58:56.341Z,81.30
2018-10-09T05:01:24.560Z,80.80
2018-10-09T05:03:52.814Z,80.50
2018-10-09T05:06:21.068Z,80.60
2018-10-09T05:08:49.362Z,81.40
2018-10-09T05:11:17.595Z,81.20
2018-10-09T05:13:45.843Z,81.80
2018-10-09T05:16:14.127Z,81.70
2018-10-09T05:18:42.387Z,81.80
2018-10-09T05:21:10.666Z,81.50
2018-10-09T05:23:38.947Z,81.40
2018-10-09T05:26:07.311Z,81.90
2018-10-09T05:28:35.603Z,81.60
2018-10-09T05:31:03.914Z,81.60
2018-10-09T05:33:32.214Z,81.70
2018-10-09T05:36:00.489Z,82.50
2018-10-09T05:38:28.815Z,82.20
2018-10-09T05:40:57.086Z,82.40
2018-10-09T05:43:25.361Z,82.40
2018-10-09T05:45:53.730Z,82.60
2018-10-09T05:48:21.971Z,82.70
2018-10-09T05:50:50.251Z,82.70
2018-10-09T05:53:18.468Z,82.80
2018-10-09T05:55:46.790Z,82.50
2018-10-09T05:58:15.067Z,82.50
2018-10-09T06:00:43.343Z,82.40
2018-10-09T06:03:11.554Z,82.60
2018-10-09T06:05:39.819Z,82.40
2018-10-09T06:08:08.082Z,82.60
2018-10-09T06:10:36.376Z,82.40
2018-10-09T06:13:04.643Z,80.90
2018-10-09T06:15:33.008Z,80.10
2018-10-09T06:18:01.245Z,79.70
2018-10-09T06:20:29.479Z,79.90
2018-10-09T06:22:57.724Z,80.60
2018-10-09T06:25:25.986Z,82.40
2018-10-09T06:27:54.288Z,82.30
2018-10-09T06:30:22.494Z,82.10
2018-10-09T06:32:50.754Z,81.70
2018-10-09T06:35:19.026Z,81.90
2018-10-09T06:37:47.252Z,81.80
2018-10-09T06:40:15.500Z,80.60
2018-10-09T06:42:43.757Z,82.50
2018-10-09T06:45:12.047Z,83.50
2018-10-09T06:47:40.339Z,82.90
2018-10-09T06:50:08.538Z,84.10
2018-10-09T06:52:36.808Z,84.40
2018-10-09T06:55:05.031Z,83.90
2018-10-09T06:57:33.359Z,83.60
2018-10-09T07:00:01.662Z,84.90
2018-10-09T07:02:29.859Z,86.00
2018-10-09T07:04:58.190Z,84.20
2018-10-09T07:07:26.471Z,82.90
2018-10-09T07:09:54.765Z,83.50
2018-10-09T07:12:23.198Z,82.90
2018-10-09T07:14:51.534Z,82.60
2018-10-09T07:17:19.873Z,84.20
2018-10-09T07:19:48.269Z,86.00
2018-10-09T07:22:16.631Z,85.80
2018-10-09T07:24:44.966Z,83.80
2018-10-09T07:27:13.340Z,84.70
2018-10-09T07:29:41.672Z,85.40
2018-10-09T07:32:10.031Z,87.30
2018-10-09T07:34:38.354Z,87.90
2018-10-09T07:37:06.648Z,89.70
2018-10-09T07:39:34.887Z,89.90
2018-10-09T07:42:03.187Z,90.20
2018-10-09T07:44:31.583Z,89.80
2018-10-09T07:46:59.843Z,87.80
2018-10-09T07:49:28.153Z,88.50
2018-10-09T07:51:56.485Z,88.40
2018-10-09T07:54:24.746Z,87.60
2018-10-09T07:56:52.968Z,86.10
2018-10-09T07:59:21.237Z,85.60
2018-10-09T08:01:49.548Z,85.90
2018-10-09T08:04:17.742Z,86.70
2018-10-09T08:06:46.071Z,86.10
2018-10-09T08:09:14.736Z,87.30
2018-10-09T08:11:43.056Z,88.10
2018-10-09T08:14:11.332Z,88.90
2018-10-09T08:16:39.567Z,89.30
2018-10-09T08:19:07.828Z,89.40
2018-10-09T08:21:36.107Z,89.10
2018-10-09T08:24:04.362Z,86.30
2018-10-09T08:26:32.617Z,84.00
2018-10-09T08:29:00.868Z,82.00
2018-10-09T08:31:29.108Z,81.30
2018-10-09T08:33:57.335Z,81.30
2018-10-09T08:36:25.615Z,81.60
2018-10-09T08:38:53.912Z,80.00
2018-10-09T08:41:22.237Z,79.80
2018-10-09T08:43:50.927Z,78.40
2018-10-09T08:46:19.228Z,77.60
2018-10-09T08:48:47.531Z,79.30
2018-10-09T08:51:15.919Z,79.20
2018-10-09T08:53:44.175Z,79.70
2018-10-09T08:56:12.420Z,82.30
2018-10-09T08:58:40.651Z,83.30
2018-10-09T09:01:08.887Z,83.90
2018-10-09T09:03:37.227Z,84.10
2018-10-09T09:06:05.510Z,83.60
2018-10-09T09:08:33.851Z,83.20
2018-10-09T09:11:02.079Z,84.70
2018-10-09T09:13:30.460Z,85.20
2018-10-09T09:15:58.732Z,84.70
2018-10-09T09:18:27.431Z,82.50
2018-10-09T09:20:55.767Z,82.90
2018-10-09T09:23:24.253Z,84.20
2018-10-09T09:25:52.506Z,84.90
2018-10-09T09:28:20.827Z,84.20
2018-10-09T09:30:49.135Z,83.20
2018-10-09T09:33:17.469Z,83.70
2018-10-09T09:35:45.751Z,84.10
2018-10-09T09:38:13.986Z,84.50
2018-10-09T09:40:42.219Z,84.20
2018-10-09T09:43:10.507Z,82.30
2018-10-09T09:45:38.763Z,81.00
2018-10-09T09:48:07.154Z,81.30
2018-10-09T09:50:35.513Z,80.40
2018-10-09T09:53:03.744Z,79.80
2018-10-09T09:55:31.979Z,77.40
2018-10-09T09:58:00.350Z,76.10
2018-10-09T10:00:33.866Z,77.50
2018-10-09T10:03:02.178Z,76.60
2018-10-09T10:05:30.495Z,76.30
2018-10-09T10:07:58.776Z,77.90
2018-10-09T10:10:27.047Z,77.20
2018-10-09T10:12:55.282Z,78.50
2018-10-09T10:15:23.518Z,77.70
2018-10-09T10:17:51.719Z,75.40
2018-10-09T10:20:20.001Z,74.20
2018-10-09T10:22:48.248Z,73.60
2018-10-09T10:25:16.501Z,73.10
2018-10-09T10:27:44.699Z,73.20
2018-10-09T10:30:12.911Z,73.80
2018-10-09T10:32:41.109Z,73.00
2018-10-09T10:35:09.345Z,72.80
2018-10-09T10:37:37.528Z,73.20
2018-10-09T10:40:05.880Z,72.20
2018-10-09T10:42:34.128Z,73.10
2018-10-09T10:45:02.405Z,74.00
2018-10-09T10:47:30.688Z,73.40
2018-10-09T10:49:58.937Z,71.70
2018-10-09T10:52:27.165Z,72.60
2018-10-09T10:54:55.447Z,71.40
2018-10-09T10:57:23.612Z,71.20
2018-10-09T10:59:51.827Z,71.10
2018-10-09T11:02:20.023Z,70.20
2018-10-09T11:04:48.287Z,70.10
2018-10-09T11:07:16.544Z,70.10
2018-10-09T11:09:44.791Z,70.10
2018-10-09T11:12:13.079Z,70.00
2018-10-09T11:14:41.314Z,69.90
2018-10-09T11:17:09.579Z,69.70
2018-10-09T11:19:38.142Z,68.10
2018-10-09T11:22:06.471Z,68.10
2018-10-09T11:24:34.883Z,68.80
2018-10-09T11:27:03.094Z,68.40
2018-10-09T11:29:31.322Z,67.90
2018-10-09T11:31:59.544Z,67.60
2018-10-09T11:34:27.846Z,66.30
2018-10-09T11:36:56.067Z,66.00
2018-10-09T11:39:24.344Z,65.40
2018-10-09T11:41:52.599Z,65.50
2018-10-09T11:44:20.848Z,65.70
2018-10-09T11:46:49.111Z,66.50
2018-10-09T11:49:17.444Z,66.60
2018-10-09T11:51:45.711Z,66.70
2018-10-09T11:54:14.002Z,66.00
2018-10-09T11:56:42.310Z,65.30
2018-10-09T11:59:10.609Z,65.60
2018-10-09T12:01:39.058Z,66.10
2018-10-09T12:04:07.284Z,66.70
2018-10-09T12:06:35.693Z,67.10
2018-10-09T12:09:04.990Z,66.20
2018-10-09T12:11:33.231Z,65.70
2018-10-09T12:14:01.486Z,65.80
2018-10-09T12:16:29.763Z,66.80
2018-10-09T12:18:58.039Z,66.90
2018-10-09T12:21:26.353Z,67.50
2018-10-09T12:23:54.816Z,68.40
2018-10-09T12:26:23.396Z,68.70
2018-10-09T12:28:51.623Z,69.10
2018-10-09T12:31:19.889Z,69.80
2018-10-09T12:33:48.119Z,69.20
2018-10-09T12:36:16.344Z,69.20
2018-10-09T12:38:44.614Z,67.50
2018-10-09T12:41:12.895Z,66.20
2018-10-09T12:43:41.175Z,65.70
2018-10-09T12:46:09.434Z,65.50
2018-10-09T12:48:37.759Z,66.00
2018-10-09T12:51:06.100Z,67.30
2018-10-09T12:53:34.338Z,68.80
2018-10-09T12:56:02.592Z,68.70
2018-10-09T12:58:30.842Z,67.30
2018-10-09T13:00:59.059Z,67.00
2018-10-09T13:03:27.289Z,65.80
2018-10-09T13:05:55.552Z,66.50
2018-10-09T13:08:23.883Z,67.30
2018-10-09T13:10:52.599Z,68.30
2018-10-09T13:13:20.847Z,66.50
2018-10-09T13:15:49.080Z,67.20
2018-10-09T13:18:17.305Z,67.30
2018-10-09T13:20:45.499Z,67.30
2018-10-09T13:23:13.730Z,66.50
2018-10-09T13:25:41.915Z,66.00
2018-10-09T13:28:10.243Z,65.70
2018-10-09T13:30:38.463Z,66.40
2018-10-09T13:33:06.770Z,66.30
2018-10-09T13:35:35.440Z,65.60
2018-10-09T13:38:03.710Z,65.90
2018-10-09T13:40:31.959Z,66.10
2018-10-09T13:43:00.200Z,66.30
2018-10-09T13:45:28.417Z,66.10
2018-10-09T13:47:56.712Z,64.60
2018-10-09T13:50:24.998Z,64.60
2018-10-09T13:52:53.179Z,63.70
2018-10-09T13:55:21.541Z,63.60
2018-10-09T13:57:49.738Z,63.30
2018-10-09T14:00:17.973Z,63.20
2018-10-09T14:02:46.196Z,63.00
2018-10-09T14:05:14.461Z,63.70
2018-10-09T14:07:42.683Z,65.10
2018-10-09T14:10:11.217Z,65.20
2018-10-09T14:12:39.473Z,64.50
2018-10-09T14:15:07.764Z,64.00
2018-10-09T14:17:36.009Z,64.20
2018-10-09T14:20:04.373Z,64.20
2018-10-09T14:22:32.671Z,64.50
2018-10-09T14:25:00.988Z,65.20
2018-10-09T14:27:29.254Z,65.30
2018-10-09T14:29:57.539Z,65.40
2018-10-09T14:32:25.767Z,65.50
2018-10-09T14:34:53.995Z,65.30
2018-10-09T14:37:22.198Z,64.80
2018-10-09T14:39:50.390Z,65.30
2018-10-09T14:42:19.546Z,65.60
2018-10-09T14:44:47.739Z,65.20
2018-10-09T14:47:15.975Z,65.50
2018-10-09T14:49:44.294Z,65.70
2018-10-09T14:52:12.511Z,66.30
2018-10-09T14:54:40.714Z,66.60
2018-10-09T14:57:09.022Z,66.10
2018-10-09T14:59:37.222Z,66.90
2018-10-09T15:02:05.486Z,67.20
2018-10-09T15:04:33.713Z,67.80
2018-10-09T15:07:01.991Z,67.90
2018-10-09T15:09:30.747Z,67.50
2018-10-09T15:11:59.582Z,67.80
2018-10-09T15:14:28.872Z,67.90
2018-10-09T15:16:57.818Z,68.30
2018-10-09T15:19:26.292Z,68.00
2018-10-09T15:21:56.995Z,68.30
2018-10-09T15:24:25.684Z,68.00
2018-10-09T15:26:54.126Z,68.40
2018-10-09T15:29:22.515Z,68.30
2018-10-09T15:31:51.888Z,68.30
2018-10-09T15:34:20.568Z,68.30
2018-10-09T15:36:48.794Z,68.40
2018-10-09T15:39:17.166Z,68.90
2018-10-09T15:41:45.454Z,68.70
2018-10-09T15:44:13.957Z,68.60
2018-10-09T15:46:42.215Z,69.20
2018-10-09T15:49:11.227Z,69.40
2018-10-09T15:51:39.575Z,69.40
2018-10-09T15:54:08.020Z,69.50
2018-10-09T15:56:36.816Z,69.60
2018-10-09T15:59:08.103Z,69.90
2018-10-09T16:01:36.392Z,70.00
2018-10-09T16:04:04.649Z,70.10
2018-10-09T16:06:35.208Z,69.80
2018-10-09T16:09:05.708Z,69.80
2018-10-09T16:11:35.168Z,70.10
2018-10-09T16:14:04.346Z,70.30
2018-10-09T16:16:33.086Z,70.10
2018-10-09T16:19:02.150Z,70.20
2018-10-09T16:21:30.514Z,70.50
2018-10-09T16:23:59.563Z,70.60
2018-10-09T16:26:27.844Z,70.70
2018-10-09T16:28:56.079Z,70.90
2018-10-09T16:31:24.578Z,71.10
2018-10-09T16:33:52.816Z,71.00
2018-10-09T16:36:21.075Z,71.10
2018-10-09T16:38:49.298Z,71.40
2018-10-09T16:41:17.579Z,71.50
2018-10-09T16:43:45.804Z,71.30
2018-10-09T16:46:14.031Z,71.10
2018-10-09T16:48:42.268Z,71.30
2018-10-09T16:51:10.533Z,71.50
2018-10-09T16:53:38.755Z,72.30
2018-10-09T16:56:06.998Z,72.00
2018-10-09T16:58:35.200Z,72.20
2018-10-09T17:01:03.620Z,72.60
2018-10-09T17:03:31.795Z,72.80
2018-10-09T17:06:00.025Z,73.00
2018-10-09T17:08:28.321Z,73.30
2018-10-09T17:10:56.641Z,73.40
2018-10-09T17:13:24.974Z,73.50
2018-10-09T17:15:53.292Z,74.00
2018-10-09T17:18:21.516Z,74.10
2018-10-09T17:20:49.717Z,74.80
2018-10-09T17:23:17.910Z,75.30
2018-10-09T17:25:46.175Z,75.40
2018-10-09T17:28:14.340Z,75.20
2018-10-09T17:30:42.538Z,75.10
2018-10-09T17:33:10.807Z,75.50
2018-10-09T17:35:38.967Z,75.60
2018-10-09T17:38:07.144Z,75.60
2018-10-09T17:40:35.357Z,76.70
2018-10-09T17:43:03.551Z,76.20
2018-10-09T17:45:31.759Z,76.30
2018-10-09T17:48:00.041Z,76.50
2018-10-09T17:50:28.291Z,76.80
2018-10-09T17:52:56.495Z,76.50
2018-10-09T17:55:24.817Z,76.30
2018-10-09T17:57:53.038Z,76.40
2018-10-09T18:00:21.249Z,76.50
2018-10-09T18:02:49.446Z,76.90
2018-10-09T18:05:17.848Z,76.80
2018-10-09T18:07:46.080Z,77.30
2018-10-09T18:10:14.294Z,77.00
2018-10-09T18:12:42.500Z,77.00
2018-10-09T18:15:13.205Z,76.30
2018-10-09T18:17:41.436Z,76.80
2018-10-09T18:20:09.654Z,76.20
2018-10-09T18:22:37.833Z,76.40
2018-10-09T18:25:06.977Z,77.00
2018-10-09T18:27:35.208Z,76.30
2018-10-09T18:30:03.463Z,76.50
2018-10-09T18:32:31.707Z,76.70
2018-10-09T18:34:59.891Z,76.60
2018-10-09T18:37:28.135Z,76.60
2018-10-09T18:39:56.350Z,76.50
2018-10-09T18:42:24.582Z,76.50
2018-10-09T18:44:52.821Z,76.70
2018-10-09T18:47:26.678Z,76.70
2018-10-09T18:49:54.860Z,76.60
2018-10-09T18:52:23.124Z,76.30
2018-10-09T18:54:51.320Z,76.20
2018-10-09T18:57:19.527Z,76.30
2018-10-09T18:59:47.818Z,76.40
2018-10-09T19:02:16.403Z,77.10
2018-10-09T19:04:44.754Z,75.90
2018-10-09T19:07:12.857Z,75.30
2018-10-09T19:09:41.056Z,75.00
2018-10-09T19:12:09.227Z,76.30
2018-10-09T19:14:37.418Z,75.90
2018-10-09T19:17:05.679Z,74.50
2018-10-09T19:19:34.160Z,74.40
2018-10-09T19:22:02.379Z,75.20
2018-10-09T19:24:30.541Z,75.70
2018-10-09T19:26:58.888Z,76.80
2018-10-09T19:29:27.111Z,77.50
2018-10-09T19:31:55.278Z,77.00
2018-10-09T19:34:23.451Z,76.80
2018-10-09T19:36:52.473Z,76.50
2018-10-09T19:39:20.810Z,76.00
2018-10-09T19:41:49.002Z,76.00
2018-10-09T19:44:17.186Z,75.60
2018-10-09T19:46:45.383Z,75.50
2018-10-09T19:49:13.578Z,75.40
2018-10-09T19:51:41.990Z,75.40
2018-10-09T19:54:10.099Z,75.50
2018-10-09T19:56:38.339Z,75.40
2018-10-09T19:59:06.610Z,75.40
2018-10-09T20:01:34.758Z,76.50
2018-10-09T20:04:02.968Z,76.70
2018-10-09T20:06:31.430Z,77.40
2018-10-09T20:08:59.618Z,78.60
2018-10-09T20:11:27.854Z,79.30
2018-10-09T20:13:56.086Z,80.70
2018-10-09T20:16:24.260Z,81.20
2018-10-09T20:18:52.466Z,81.40
2018-10-09T20:21:20.694Z,80.60
2018-10-09T20:23:48.913Z,79.10
2018-10-09T20:26:17.107Z,78.10
2018-10-09T20:28:45.315Z,78.30
2018-10-09T20:31:13.502Z,78.20
2018-10-09T20:33:41.700Z,77.80
2018-10-09T20:36:09.904Z,76.60
2018-10-09T20:38:38.088Z,75.90
2018-10-09T20:41:06.467Z,74.30
2018-10-09T20:43:34.731Z,74.30
2018-10-09T20:46:03.086Z,74.90
2018-10-09T20:48:31.387Z,75.30
2018-10-09T20:50:59.556Z,76.00
2018-10-09T20:53:27.759Z,76.00
2018-10-09T20:55:55.958Z,75.00
2018-10-09T20:58:24.182Z,74.60
2018-10-09T21:00:52.379Z,74.60
2018-10-09T21:03:20.565Z,75.40
2018-10-09T21:05:48.853Z,76.20
2018-10-09T21:08:16.963Z,75.90
2018-10-09T21:10:45.329Z,76.50
2018-10-09T21:13:13.510Z,76.70
2018-10-09T21:15:41.695Z,76.40
2018-10-09T21:18:09.879Z,76.10
2018-10-09T21:20:38.060Z,76.20
2018-10-09T21:23:06.243Z,76.10
2018-10-09T21:25:34.479Z,76.10
2018-10-09T21:28:02.654Z,76.40
2018-10-09T21:30:30.869Z,76.50
2018-10-09T21:32:59.335Z,76.90
2018-10-09T21:35:27.519Z,77.10
2018-10-09T21:37:55.695Z,77.50
2018-10-09T21:40:23.878Z,77.50
2018-10-09T21:42:52.103Z,78.50
2018-10-09T21:45:20.288Z,79.20
2018-10-09T21:47:53.942Z,80.10
2018-10-09T21:50:22.216Z,81.20
2018-10-09T21:52:50.418Z,82.40
2018-10-09T21:55:18.578Z,82.30
2018-10-09T21:57:46.765Z,82.70
2018-10-09T22:00:15.010Z,82.80
2018-10-09T22:02:43.206Z,82.50
2018-10-09T22:05:11.440Z,82.20
2018-10-09T22:07:39.631Z,82.00
2018-10-09T22:10:07.902Z,82.20
2018-10-09T22:12:36.161Z,83.40
2018-10-09T22:15:04.608Z,82.70
2018-10-09T22:17:32.783Z,82.60
2018-10-09T22:20:00.983Z,82.70
2018-10-09T22:22:29.184Z,82.50
2018-10-09T22:24:57.395Z,83.10
2018-10-09T22:27:25.567Z,81.00
2018-10-09T22:29:54.303Z,80.20
2018-10-09T22:32:22.534Z,80.30
2018-10-09T22:34:50.841Z,80.30
2018-10-09T22:37:19.850Z,80.20
2018-10-09T22:39:49.050Z,80.80
2018-10-09T22:42:17.303Z,80.70
2018-10-09T22:44:45.497Z,81.50
2018-10-09T22:47:13.673Z,82.90
2018-10-09T22:49:41.878Z,82.60
2018-10-09T22:52:10.035Z,82.70
2018-10-09T22:54:38.210Z,83.00
2018-10-09T22:57:06.402Z,83.20
2018-10-09T22:59:34.607Z,83.40
2018-10-09T23:02:02.791Z,83.70
2018-10-09T23:04:30.987Z,83.70
2018-10-09T23:06:59.178Z,83.60
2018-10-09T23:09:27.363Z,83.60
2018-10-09T23:11:55.555Z,83.90
2018-10-09T23:14:23.763Z,84.20
2018-10-09T23:16:52.007Z,85.10
2018-10-09T23:19:20.267Z,85.60
2018-10-09T23:21:48.518Z,85.70
2018-10-09T23:24:16.697Z,86.00
2018-10-09T23:26:44.904Z,85.40
2018-10-09T23:29:13.088Z,85.60
2018-10-09T23:31:41.266Z,85.20
2018-10-09T23:34:09.480Z,84.70
2018-10-09T23:36:37.682Z,84.60
2018-10-09T23:39:07.022Z,84.20
2018-10-09T23:41:35.215Z,84.50
2018-10-09T23:44:03.561Z,84.50
2018-10-09T23:46:31.739Z,84.70
2018-10-09T23:48:59.912Z,84.60
2018-10-09T23:51:28.099Z,84.10
2018-10-09T23:53:56.276Z,83.60
2018-10-09T23:56:24.457Z,83.90
2018-10-09T23:58:52.655Z,84.60
